Rome, Wisconsin
Current Conditions -  °F | °C
As of 4:18 AM on Sunday 23 Nov 2014 (Local Time) from KISW Reporting Station
Haze Haze  
Wind Chill: 44°   Ceiling: 500
Heat Index: 49°   Visibility: 3mi
Dew Point: 47°   Wind: 12mph
Humidity: 93%   Direction: 190°S
Pressure: 29.61"   Gusts: NA
Location:  44.252°N, 89.9853°W
Report Text: KISW 231018Z AUTO 19010KT 3SM BR OVC005 09/08 A2961 RMK AO2 CIG 004V009 T00940083 $
Loading
Personal Weather Stations






























Interactive Weather Map New forecast layout! Learn more

10-Day Weather Forecast

Advertisements
Track Severe Weather on mobile